sensor_id;sensor_type;location;lat;lon;timestamp;temperature;humidity
28189;DHT22;15471;51.166;4.470;2023-04-16T00:01:50;7.80;99.90
28189;DHT22;15471;51.166;4.470;2023-04-16T00:04:20;7.80;99.90
28189;DHT22;15471;51.166;4.470;2023-04-16T00:06:49;7.80;99.90
28189;DHT22;15471;51.166;4.470;2023-04-16T00:09:15;7.80;99.90
28189;DHT22;15471;51.166;4.470;2023-04-16T00:11:45;7.80;99.90
28189;DHT22;15471;51.166;4.470;2023-04-16T00:23:18;7.90;99.90
28189;DHT22;15471;51.166;4.470;2023-04-16T00:27:21;8.00;99.90
28189;DHT22;15471;51.166;4.470;2023-04-16T00:47:26;7.90;99.90
28189;DHT22;15471;51.166;4.470;2023-04-16T00:51:26;8.00;99.90
28189;DHT22;15471;51.166;4.470;2023-04-16T00:55:16;8.00;99.90
28189;DHT22;15471;51.166;4.470;2023-04-16T01:02:59;8.10;99.90
28189;DHT22;15471;51.166;4.470;2023-04-16T01:07:10;8.10;99.90
28189;DHT22;15471;51.166;4.470;2023-04-16T01:10:58;8.10;99.90
28189;DHT22;15471;51.166;4.470;2023-04-16T01:18:55;8.10;99.90
28189;DHT22;15471;51.166;4.470;2023-04-16T01:23:05;8.10;99.90
28189;DHT22;15471;51.166;4.470;2023-04-16T01:35:46;8.10;99.90
28189;DHT22;15471;51.166;4.470;2023-04-16T01:48:37;8.20;99.90
28189;DHT22;15471;51.166;4.470;2023-04-16T02:00:43;8.20;99.90
28189;DHT22;15471;51.166;4.470;2023-04-16T02:05:09;8.20;99.90
28189;DHT22;15471;51.166;4.470;2023-04-16T02:09:27;8.20;99.90
28189;DHT22;15471;51.166;4.470;2023-04-16T02:13:15;8.30;99.90
28189;DHT22;15471;51.166;4.470;2023-04-16T02:17:18;8.30;99.90
28189;DHT22;15471;51.166;4.470;2023-04-16T02:21:19;8.30;99.90
28189;DHT22;15471;51.166;4.470;2023-04-16T02:29:04;8.40;99.90
28189;DHT22;15471;51.166;4.470;2023-04-16T02:33:12;8.40;99.90
28189;DHT22;15471;51.166;4.470;2023-04-16T02:37:16;8.40;99.90
28189;DHT22;15471;51.166;4.470;2023-04-16T02:41:11;8.40;99.90
28189;DHT22;15471;51.166;4.470;2023-04-16T02:44:43;8.30;99.90
28189;DHT22;15471;51.166;4.470;2023-04-16T02:49:25;8.30;99.90
28189;DHT22;15471;51.166;4.470;2023-04-16T02:53:16;8.30;99.90
28189;DHT22;15471;51.166;4.470;2023-04-16T02:57:36;8.40;99.90
28189;DHT22;15471;51.166;4.470;2023-04-16T03:01:31;8.30;99.90
28189;DHT22;15471;51.166;4.470;2023-04-16T03:05:35;8.40;99.90
28189;DHT22;15471;51.166;4.470;2023-04-16T03:09:32;8.30;99.90
28189;DHT22;15471;51.166;4.470;2023-04-16T03:13:38;8.20;99.90
28189;DHT22;15471;51.166;4.470;2023-04-16T03:17:06;8.10;99.90
28189;DHT22;15471;51.166;4.470;2023-04-16T03:20:52;8.20;99.90
28189;DHT22;15471;51.166;4.470;2023-04-16T03:28:48;8.20;99.90
28189;DHT22;15471;51.166;4.470;2023-04-16T03:36:45;7.90;99.90
28189;DHT22;15471;51.166;4.470;2023-04-16T03:40:37;7.90;99.90
28189;DHT22;15471;51.166;4.470;2023-04-16T03:48:29;7.90;99.90
28189;DHT22;15471;51.166;4.470;2023-04-16T03:52:46;7.90;99.90
28189;DHT22;15471;51.166;4.470;2023-04-16T03:56:47;8.00;99.90
28189;DHT22;15471;51.166;4.470;2023-04-16T04:00:48;7.90;99.90
28189;DHT22;15471;51.166;4.470;2023-04-16T04:04:28;7.90;99.90
28189;DHT22;15471;51.166;4.470;2023-04-16T04:08:16;8.00;99.90
28189;DHT22;15471;51.166;4.470;2023-04-16T04:12:10;8.00;99.90
28189;DHT22;15471;51.166;4.470;2023-04-16T04:15:44;7.90;99.90
28189;DHT22;15471;51.166;4.470;2023-04-16T04:23:27;8.00;99.90
28189;DHT22;15471;51.166;4.470;2023-04-16T04:26:51;8.00;99.90
28189;DHT22;15471;51.166;4.470;2023-04-16T04:30:08;7.90;99.90
28189;DHT22;15471;51.166;4.470;2023-04-16T04:34:01;7.90;99.90
28189;DHT22;15471;51.166;4.470;2023-04-16T04:37:14;8.00;99.90
28189;DHT22;15471;51.166;4.470;2023-04-16T04:40:45;8.10;99.90
28189;DHT22;15471;51.166;4.470;2023-04-16T04:44:28;8.10;99.90
28189;DHT22;15471;51.166;4.470;2023-04-16T04:47:58;8.20;99.90
28189;DHT22;15471;51.166;4.470;2023-04-16T04:51:14;8.10;99.90
28189;DHT22;15471;51.166;4.470;2023-04-16T04:54:42;8.20;99.90
28189;DHT22;15471;51.166;4.470;2023-04-16T04:58:15;8.00;99.90
28189;DHT22;15471;51.166;4.470;2023-04-16T05:01:53;8.10;99.90
28189;DHT22;15471;51.166;4.470;2023-04-16T05:05:23;8.10;99.90
28189;DHT22;15471;51.166;4.470;2023-04-16T05:12:43;8.10;99.90
28189;DHT22;15471;51.166;4.470;2023-04-16T05:16:21;8.10;99.90
28189;DHT22;15471;51.166;4.470;2023-04-16T05:20:13;8.10;99.90
28189;DHT22;15471;51.166;4.470;2023-04-16T05:24:14;8.10;99.90
28189;DHT22;15471;51.166;4.470;2023-04-16T05:27:13;8.00;99.90
28189;DHT22;15471;51.166;4.470;2023-04-16T05:30:37;7.90;99.90
28189;DHT22;15471;51.166;4.470;2023-04-16T05:34:33;7.80;99.90
28189;DHT22;15471;51.166;4.470;2023-04-16T05:38:33;7.70;99.90
28189;DHT22;15471;51.166;4.470;2023-04-16T05:42:44;7.60;99.90
28189;DHT22;15471;51.166;4.470;2023-04-16T05:46:51;7.50;99.90
28189;DHT22;15471;51.166;4.470;2023-04-16T05:50:55;7.40;99.90
28189;DHT22;15471;51.166;4.470;2023-04-16T06:02:34;7.50;99.90
28189;DHT22;15471;51.166;4.470;2023-04-16T06:06:31;7.50;99.90
28189;DHT22;15471;51.166;4.470;2023-04-16T06:10:41;7.50;99.90
28189;DHT22;15471;51.166;4.470;2023-04-16T06:14:12;7.50;99.90
28189;DHT22;15471;51.166;4.470;2023-04-16T06:17:42;7.60;99.90
28189;DHT22;15471;51.166;4.470;2023-04-16T06:25:13;7.60;99.90
28189;DHT22;15471;51.166;4.470;2023-04-16T06:28:57;7.60;99.90
28189;DHT22;15471;51.166;4.470;2023-04-16T06:33:06;7.60;99.90
28189;DHT22;15471;51.166;4.470;2023-04-16T06:44:36;7.60;99.90
28189;DHT22;15471;51.166;4.470;2023-04-16T06:47:02;7.50;99.90
28189;DHT22;15471;51.166;4.470;2023-04-16T06:49:28;7.50;99.90
28189;DHT22;15471;51.166;4.470;2023-04-16T06:51:54;7.50;99.90
28189;DHT22;15471;51.166;4.470;2023-04-16T06:54:20;7.50;99.90
28189;DHT22;15471;51.166;4.470;2023-04-16T06:56:46;7.50;99.90
28189;DHT22;15471;51.166;4.470;2023-04-16T06:59:12;7.50;99.90
28189;DHT22;15471;51.166;4.470;2023-04-16T07:01:38;7.50;99.90
28189;DHT22;15471;51.166;4.470;2023-04-16T07:04:05;7.40;99.90
28189;DHT22;15471;51.166;4.470;2023-04-16T07:06:32;7.50;99.90
28189;DHT22;15471;51.166;4.470;2023-04-16T07:08:58;7.50;99.90
28189;DHT22;15471;51.166;4.470;2023-04-16T07:11:24;7.50;99.90
28189;DHT22;15471;51.166;4.470;2023-04-16T07:13:53;7.50;99.90
28189;DHT22;15471;51.166;4.470;2023-04-16T07:16:19;7.50;99.90
28189;DHT22;15471;51.166;4.470;2023-04-16T07:18:45;7.50;99.90
28189;DHT22;15471;51.166;4.470;2023-04-16T07:21:11;7.60;99.90
28189;DHT22;15471;51.166;4.470;2023-04-16T07:23:37;7.50;99.90
28189;DHT22;15471;51.166;4.470;2023-04-16T07:26:03;7.50;99.90
28189;DHT22;15471;51.166;4.470;2023-04-16T07:28:29;7.50;99.90
28189;DHT22;15471;51.166;4.470;2023-04-16T07:30:55;7.50;99.90
28189;DHT22;15471;51.166;4.470;2023-04-16T07:33:21;7.50;99.90
28189;DHT22;15471;51.166;4.470;2023-04-16T07:35:47;7.50;99.90
28189;DHT22;15471;51.166;4.470;2023-04-16T07:38:13;7.50;99.90
28189;DHT22;15471;51.166;4.470;2023-04-16T07:40:39;7.50;99.90
28189;DHT22;15471;51.166;4.470;2023-04-16T07:43:06;7.60;99.90
28189;DHT22;15471;51.166;4.470;2023-04-16T07:45:31;7.50;99.90
28189;DHT22;15471;51.166;4.470;2023-04-16T07:48:00;7.60;99.90
28189;DHT22;15471;51.166;4.470;2023-04-16T07:50:26;7.60;99.90
28189;DHT22;15471;51.166;4.470;2023-04-16T07:52:52;7.60;99.90
28189;DHT22;15471;51.166;4.470;2023-04-16T07:55:18;7.60;99.90
28189;DHT22;15471;51.166;4.470;2023-04-16T07:57:44;7.60;99.90
28189;DHT22;15471;51.166;4.470;2023-04-16T08:00:11;7.60;99.90
28189;DHT22;15471;51.166;4.470;2023-04-16T08:02:40;7.60;99.90
28189;DHT22;15471;51.166;4.470;2023-04-16T08:05:06;7.70;99.90
28189;DHT22;15471;51.166;4.470;2023-04-16T08:07:33;7.70;99.90
28189;DHT22;15471;51.166;4.470;2023-04-16T08:09:59;7.70;99.90
28189;DHT22;15471;51.166;4.470;2023-04-16T08:12:24;7.70;99.90
28189;DHT22;15471;51.166;4.470;2023-04-16T08:14:51;7.70;99.90
28189;DHT22;15471;51.166;4.470;2023-04-16T08:17:17;7.70;99.90
28189;DHT22;15471;51.166;4.470;2023-04-16T08:19:43;7.70;99.90
28189;DHT22;15471;51.166;4.470;2023-04-16T08:22:11;7.70;99.90
28189;DHT22;15471;51.166;4.470;2023-04-16T08:24:37;7.70;99.90
28189;DHT22;15471;51.166;4.470;2023-04-16T08:27:03;7.80;99.90
28189;DHT22;15471;51.166;4.470;2023-04-16T08:29:30;7.80;99.90
28189;DHT22;15471;51.166;4.470;2023-04-16T08:31:56;7.80;99.90
28189;DHT22;15471;51.166;4.470;2023-04-16T08:34:22;7.80;99.90
28189;DHT22;15471;51.166;4.470;2023-04-16T08:36:48;7.80;99.90
28189;DHT22;15471;51.166;4.470;2023-04-16T08:39:14;7.80;99.90
28189;DHT22;15471;51.166;4.470;2023-04-16T08:41:42;7.80;99.90
28189;DHT22;15471;51.166;4.470;2023-04-16T08:44:17;7.80;99.90
28189;DHT22;15471;51.166;4.470;2023-04-16T08:46:46;7.80;99.90
28189;DHT22;15471;51.166;4.470;2023-04-16T08:49:15;7.80;99.90
28189;DHT22;15471;51.166;4.470;2023-04-16T08:51:48;7.80;99.90
28189;DHT22;15471;51.166;4.470;2023-04-16T08:57:05;7.90;99.90
28189;DHT22;15471;51.166;4.470;2023-04-16T08:59:32;7.90;99.90
28189;DHT22;15471;51.166;4.470;2023-04-16T09:01:59;8.00;99.90
28189;DHT22;15471;51.166;4.470;2023-04-16T09:04:27;8.10;99.90
28189;DHT22;15471;51.166;4.470;2023-04-16T09:06:55;8.00;99.90
28189;DHT22;15471;51.166;4.470;2023-04-16T09:09:27;8.20;99.90
28189;DHT22;15471;51.166;4.470;2023-04-16T09:11:58;8.20;99.90
28189;DHT22;15471;51.166;4.470;2023-04-16T09:14:24;8.20;99.90
28189;DHT22;15471;51.166;4.470;2023-04-16T09:16:52;8.20;99.90
28189;DHT22;15471;51.166;4.470;2023-04-16T09:19:23;8.30;99.90
28189;DHT22;15471;51.166;4.470;2023-04-16T09:21:49;8.30;99.90
28189;DHT22;15471;51.166;4.470;2023-04-16T09:24:15;8.30;99.90
28189;DHT22;15471;51.166;4.470;2023-04-16T09:26:47;8.30;99.90
28189;DHT22;15471;51.166;4.470;2023-04-16T09:29:35;8.20;99.90
28189;DHT22;15471;51.166;4.470;2023-04-16T09:32:07;8.30;99.90
28189;DHT22;15471;51.166;4.470;2023-04-16T09:34:52;8.30;99.90
28189;DHT22;15471;51.166;4.470;2023-04-16T09:37:18;8.40;99.90
28189;DHT22;15471;51.166;4.470;2023-04-16T09:40:01;8.40;99.90
28189;DHT22;15471;51.166;4.470;2023-04-16T09:42:28;8.40;99.90
28189;DHT22;15471;51.166;4.470;2023-04-16T09:44:55;8.40;99.90
28189;DHT22;15471;51.166;4.470;2023-04-16T09:47:24;8.40;99.90
28189;DHT22;15471;51.166;4.470;2023-04-16T09:49:51;8.50;99.90
28189;DHT22;15471;51.166;4.470;2023-04-16T09:52:19;8.50;99.90
28189;DHT22;15471;51.166;4.470;2023-04-16T09:54:51;8.50;99.90
28189;DHT22;15471;51.166;4.470;2023-04-16T09:57:24;8.50;99.90
28189;DHT22;15471;51.166;4.470;2023-04-16T10:00:00;8.50;99.90
28189;DHT22;15471;51.166;4.470;2023-04-16T10:02:27;8.50;99.90
28189;DHT22;15471;51.166;4.470;2023-04-16T10:04:53;8.50;99.90
28189;DHT22;15471;51.166;4.470;2023-04-16T10:07:20;8.50;99.90
28189;DHT22;15471;51.166;4.470;2023-04-16T10:09:47;8.60;99.90
28189;DHT22;15471;51.166;4.470;2023-04-16T10:12:14;8.70;99.90
28189;DHT22;15471;51.166;4.470;2023-04-16T10:14:41;8.70;99.90
28189;DHT22;15471;51.166;4.470;2023-04-16T10:17:08;8.70;99.90
28189;DHT22;15471;51.166;4.470;2023-04-16T10:19:34;8.80;99.90
28189;DHT22;15471;51.166;4.470;2023-04-16T10:22:02;8.80;99.90
28189;DHT22;15471;51.166;4.470;2023-04-16T10:24:29;8.70;99.90
28189;DHT22;15471;51.166;4.470;2023-04-16T10:26:56;8.80;99.90
28189;DHT22;15471;51.166;4.470;2023-04-16T10:29:24;8.80;99.90
28189;DHT22;15471;51.166;4.470;2023-04-16T10:31:52;8.90;99.90
28189;DHT22;15471;51.166;4.470;2023-04-16T10:34:20;8.90;99.90
28189;DHT22;15471;51.166;4.470;2023-04-16T10:36:51;8.90;99.90
28189;DHT22;15471;51.166;4.470;2023-04-16T10:39:21;9.10;99.90
28189;DHT22;15471;51.166;4.470;2023-04-16T10:41:47;8.90;99.90
28189;DHT22;15471;51.166;4.470;2023-04-16T10:44:17;8.90;99.90
28189;DHT22;15471;51.166;4.470;2023-04-16T10:46:47;8.90;99.90
28189;DHT22;15471;51.166;4.470;2023-04-16T10:49:23;9.00;99.90
28189;DHT22;15471;51.166;4.470;2023-04-16T10:52:00;9.00;99.90
28189;DHT22;15471;51.166;4.470;2023-04-16T10:54:29;9.10;99.90
28189;DHT22;15471;51.166;4.470;2023-04-16T10:56:57;9.20;99.90
28189;DHT22;15471;51.166;4.470;2023-04-16T10:59:24;9.10;99.90
28189;DHT22;15471;51.166;4.470;2023-04-16T11:01:53;9.10;99.90
28189;DHT22;15471;51.166;4.470;2023-04-16T11:10:05;9.20;99.90
28189;DHT22;15471;51.166;4.470;2023-04-16T11:12:42;9.20;99.90
28189;DHT22;15471;51.166;4.470;2023-04-16T11:15:16;9.20;99.90
28189;DHT22;15471;51.166;4.470;2023-04-16T11:17:49;9.20;99.90
28189;DHT22;15471;51.166;4.470;2023-04-16T11:22:42;9.10;99.90
28189;DHT22;15471;51.166;4.470;2023-04-16T11:25:10;9.10;99.90
28189;DHT22;15471;51.166;4.470;2023-04-16T11:27:37;9.10;99.90
28189;DHT22;15471;51.166;4.470;2023-04-16T11:30:06;9.20;99.90
28189;DHT22;15471;51.166;4.470;2023-04-16T11:32:37;9.20;99.90
28189;DHT22;15471;51.166;4.470;2023-04-16T11:35:17;9.20;99.90
28189;DHT22;15471;51.166;4.470;2023-04-16T11:37:44;9.30;99.90
28189;DHT22;15471;51.166;4.470;2023-04-16T11:40:17;9.30;99.90
28189;DHT22;15471;51.166;4.470;2023-04-16T11:42:49;9.20;99.90
28189;DHT22;15471;51.166;4.470;2023-04-16T11:45:17;9.20;99.90
28189;DHT22;15471;51.166;4.470;2023-04-16T11:47:48;9.20;99.90
28189;DHT22;15471;51.166;4.470;2023-04-16T11:50:29;9.30;99.90
28189;DHT22;15471;51.166;4.470;2023-04-16T11:53:03;9.30;99.90
28189;DHT22;15471;51.166;4.470;2023-04-16T11:55:42;9.40;99.90
28189;DHT22;15471;51.166;4.470;2023-04-16T11:58:11;9.40;99.90
28189;DHT22;15471;51.166;4.470;2023-04-16T12:00:43;9.40;99.90
28189;DHT22;15471;51.166;4.470;2023-04-16T12:03:10;9.40;99.90
28189;DHT22;15471;51.166;4.470;2023-04-16T12:05:40;9.40;99.90
28189;DHT22;15471;51.166;4.470;2023-04-16T12:08:28;9.50;99.90
28189;DHT22;15471;51.166;4.470;2023-04-16T12:10:54;9.70;99.90
28189;DHT22;15471;51.166;4.470;2023-04-16T12:13:31;9.80;99.90
28189;DHT22;15471;51.166;4.470;2023-04-16T12:16:17;9.90;99.90
28189;DHT22;15471;51.166;4.470;2023-04-16T12:19:09;9.90;99.90
28189;DHT22;15471;51.166;4.470;2023-04-16T12:22:02;10.00;99.90
28189;DHT22;15471;51.166;4.470;2023-04-16T12:24:58;10.10;99.90
28189;DHT22;15471;51.166;4.470;2023-04-16T12:27:49;10.20;99.90
28189;DHT22;15471;51.166;4.470;2023-04-16T12:30:31;10.20;99.90
28189;DHT22;15471;51.166;4.470;2023-04-16T12:33:15;10.20;99.90
28189;DHT22;15471;51.166;4.470;2023-04-16T12:36:00;10.10;99.90
28189;DHT22;15471;51.166;4.470;2023-04-16T12:38:29;10.00;99.90
28189;DHT22;15471;51.166;4.470;2023-04-16T12:40:55;10.10;99.90
28189;DHT22;15471;51.166;4.470;2023-04-16T12:43:23;10.20;99.90
28189;DHT22;15471;51.166;4.470;2023-04-16T12:45:50;10.30;99.90
28189;DHT22;15471;51.166;4.470;2023-04-16T12:48:23;10.40;99.90
28189;DHT22;15471;51.166;4.470;2023-04-16T12:51:00;10.50;99.90
28189;DHT22;15471;51.166;4.470;2023-04-16T12:53:29;10.60;99.90
28189;DHT22;15471;51.166;4.470;2023-04-16T12:55:58;10.50;99.90
28189;DHT22;15471;51.166;4.470;2023-04-16T12:58:24;10.30;99.90
28189;DHT22;15471;51.166;4.470;2023-04-16T13:00:55;10.20;99.90
28189;DHT22;15471;51.166;4.470;2023-04-16T13:03:22;10.20;99.90
28189;DHT22;15471;51.166;4.470;2023-04-16T13:05:50;10.20;99.90
28189;DHT22;15471;51.166;4.470;2023-04-16T13:08:16;10.30;99.90
28189;DHT22;15471;51.166;4.470;2023-04-16T13:10:43;10.40;99.90
28189;DHT22;15471;51.166;4.470;2023-04-16T13:13:11;10.60;99.90
28189;DHT22;15471;51.166;4.470;2023-04-16T13:15:39;10.70;99.90
28189;DHT22;15471;51.166;4.470;2023-04-16T13:18:06;10.80;99.90
28189;DHT22;15471;51.166;4.470;2023-04-16T13:20:32;10.90;99.90
28189;DHT22;15471;51.166;4.470;2023-04-16T13:22:59;11.00;99.90
28189;DHT22;15471;51.166;4.470;2023-04-16T13:25:28;11.10;99.90
28189;DHT22;15471;51.166;4.470;2023-04-16T13:27:58;11.20;99.90
28189;DHT22;15471;51.166;4.470;2023-04-16T13:30:45;11.10;99.90
28189;DHT22;15471;51.166;4.470;2023-04-16T13:33:28;11.10;99.90
28189;DHT22;15471;51.166;4.470;2023-04-16T13:43:33;11.40;99.90
28189;DHT22;15471;51.166;4.470;2023-04-16T13:46:26;11.40;99.90
28189;DHT22;15471;51.166;4.470;2023-04-16T13:49:06;11.30;99.90
28189;DHT22;15471;51.166;4.470;2023-04-16T13:51:32;11.30;99.90
28189;DHT22;15471;51.166;4.470;2023-04-16T13:54:32;11.30;99.90
28189;DHT22;15471;51.166;4.470;2023-04-16T13:57:00;11.20;99.90
28189;DHT22;15471;51.166;4.470;2023-04-16T13:59:39;11.10;99.90
28189;DHT22;15471;51.166;4.470;2023-04-16T14:02:05;11.00;99.90
28189;DHT22;15471;51.166;4.470;2023-04-16T14:04:32;11.10;99.90
28189;DHT22;15471;51.166;4.470;2023-04-16T14:06:58;11.10;99.90
28189;DHT22;15471;51.166;4.470;2023-04-16T14:09:24;11.30;99.90
28189;DHT22;15471;51.166;4.470;2023-04-16T14:11:54;11.40;99.90
28189;DHT22;15471;51.166;4.470;2023-04-16T14:14:23;11.30;99.90
28189;DHT22;15471;51.166;4.470;2023-04-16T14:16:52;11.30;99.90
28189;DHT22;15471;51.166;4.470;2023-04-16T14:19:19;11.30;99.90
28189;DHT22;15471;51.166;4.470;2023-04-16T14:21:46;11.30;99.90
28189;DHT22;15471;51.166;4.470;2023-04-16T14:24:12;11.30;99.90
28189;DHT22;15471;51.166;4.470;2023-04-16T14:26:42;11.30;99.90
28189;DHT22;15471;51.166;4.470;2023-04-16T14:29:09;11.30;99.90
28189;DHT22;15471;51.166;4.470;2023-04-16T14:31:37;11.30;99.90
28189;DHT22;15471;51.166;4.470;2023-04-16T14:34:09;11.20;99.90
28189;DHT22;15471;51.166;4.470;2023-04-16T14:36:35;11.10;99.90
28189;DHT22;15471;51.166;4.470;2023-04-16T14:39:09;11.00;99.90
28189;DHT22;15471;51.166;4.470;2023-04-16T14:41:38;11.00;99.90
28189;DHT22;15471;51.166;4.470;2023-04-16T14:47:52;11.20;99.90
28189;DHT22;15471;51.166;4.470;2023-04-16T14:50:33;11.20;99.90
28189;DHT22;15471;51.166;4.470;2023-04-16T14:53:44;11.10;99.90
28189;DHT22;15471;51.166;4.470;2023-04-16T15:03:51;11.10;99.90
28189;DHT22;15471;51.166;4.470;2023-04-16T15:07:13;11.10;99.90
28189;DHT22;15471;51.166;4.470;2023-04-16T15:10:01;10.90;99.90
28189;DHT22;15471;51.166;4.470;2023-04-16T15:24:29;10.80;99.90
28189;DHT22;15471;51.166;4.470;2023-04-16T15:26:56;10.80;99.90
28189;DHT22;15471;51.166;4.470;2023-04-16T15:29:22;10.80;99.90
28189;DHT22;15471;51.166;4.470;2023-04-16T15:31:51;10.80;99.90
28189;DHT22;15471;51.166;4.470;2023-04-16T15:34:17;10.80;99.90
28189;DHT22;15471;51.166;4.470;2023-04-16T15:36:43;10.80;99.90
28189;DHT22;15471;51.166;4.470;2023-04-16T15:39:15;10.70;99.90
28189;DHT22;15471;51.166;4.470;2023-04-16T15:41:41;10.70;99.90
28189;DHT22;15471;51.166;4.470;2023-04-16T15:44:10;10.70;99.90
28189;DHT22;15471;51.166;4.470;2023-04-16T15:46:38;10.60;99.90
28189;DHT22;15471;51.166;4.470;2023-04-16T15:49:07;10.60;99.90
28189;DHT22;15471;51.166;4.470;2023-04-16T15:51:33;10.60;99.90
28189;DHT22;15471;51.166;4.470;2023-04-16T15:54:00;10.60;99.90
28189;DHT22;15471;51.166;4.470;2023-04-16T15:56:31;10.70;99.90
28189;DHT22;15471;51.166;4.470;2023-04-16T15:59:00;10.70;99.90
28189;DHT22;15471;51.166;4.470;2023-04-16T16:01:30;10.80;99.90
28189;DHT22;15471;51.166;4.470;2023-04-16T16:04:07;10.80;99.90
28189;DHT22;15471;51.166;4.470;2023-04-16T16:06:57;10.80;99.90
28189;DHT22;15471;51.166;4.470;2023-04-16T16:09:26;10.80;99.90
28189;DHT22;15471;51.166;4.470;2023-04-16T16:11:55;10.90;99.90
28189;DHT22;15471;51.166;4.470;2023-04-16T16:14:25;10.90;99.90
28189;DHT22;15471;51.166;4.470;2023-04-16T16:16:51;11.00;99.90
28189;DHT22;15471;51.166;4.470;2023-04-16T16:19:18;11.00;99.90
28189;DHT22;15471;51.166;4.470;2023-04-16T16:22:03;11.10;99.90
28189;DHT22;15471;51.166;4.470;2023-04-16T16:24:30;11.20;99.90
28189;DHT22;15471;51.166;4.470;2023-04-16T16:26:56;11.10;99.90
28189;DHT22;15471;51.166;4.470;2023-04-16T16:29:23;11.00;99.90
28189;DHT22;15471;51.166;4.470;2023-04-16T16:31:52;10.90;99.90
28189;DHT22;15471;51.166;4.470;2023-04-16T16:38:17;10.90;99.90
28189;DHT22;15471;51.166;4.470;2023-04-16T16:40:43;11.00;99.90
28189;DHT22;15471;51.166;4.470;2023-04-16T16:43:11;11.10;99.90
28189;DHT22;15471;51.166;4.470;2023-04-16T16:45:37;11.10;99.90
28189;DHT22;15471;51.166;4.470;2023-04-16T16:48:04;10.90;99.90
28189;DHT22;15471;51.166;4.470;2023-04-16T16:50:31;10.80;99.90
28189;DHT22;15471;51.166;4.470;2023-04-16T16:52:58;10.80;99.90
28189;DHT22;15471;51.166;4.470;2023-04-16T16:55:25;11.00;99.90
28189;DHT22;15471;51.166;4.470;2023-04-16T16:57:51;11.00;99.90
28189;DHT22;15471;51.166;4.470;2023-04-16T17:00:18;10.90;99.90
28189;DHT22;15471;51.166;4.470;2023-04-16T17:02:46;10.90;99.90
28189;DHT22;15471;51.166;4.470;2023-04-16T17:05:15;10.80;99.90
28189;DHT22;15471;51.166;4.470;2023-04-16T17:07:41;10.70;99.90
28189;DHT22;15471;51.166;4.470;2023-04-16T17:10:08;10.60;99.90
28189;DHT22;15471;51.166;4.470;2023-04-16T17:12:40;10.60;99.90
28189;DHT22;15471;51.166;4.470;2023-04-16T17:15:06;10.60;99.90
28189;DHT22;15471;51.166;4.470;2023-04-16T17:17:33;10.70;99.90
28189;DHT22;15471;51.166;4.470;2023-04-16T17:19:59;10.60;99.90
28189;DHT22;15471;51.166;4.470;2023-04-16T17:22:26;10.60;99.90
28189;DHT22;15471;51.166;4.470;2023-04-16T17:24:53;10.50;99.90
28189;DHT22;15471;51.166;4.470;2023-04-16T17:27:19;10.50;99.90
28189;DHT22;15471;51.166;4.470;2023-04-16T17:29:45;10.40;99.90
28189;DHT22;15471;51.166;4.470;2023-04-16T17:32:12;10.40;99.90
28189;DHT22;15471;51.166;4.470;2023-04-16T17:34:38;10.30;99.90
28189;DHT22;15471;51.166;4.470;2023-04-16T17:37:07;10.20;99.90
28189;DHT22;15471;51.166;4.470;2023-04-16T17:39:45;10.10;99.90
28189;DHT22;15471;51.166;4.470;2023-04-16T17:42:19;10.20;99.90
28189;DHT22;15471;51.166;4.470;2023-04-16T17:44:46;10.20;99.90
28189;DHT22;15471;51.166;4.470;2023-04-16T17:47:13;10.30;99.90
28189;DHT22;15471;51.166;4.470;2023-04-16T17:49:39;10.30;99.90
28189;DHT22;15471;51.166;4.470;2023-04-16T17:52:10;10.30;99.90
28189;DHT22;15471;51.166;4.470;2023-04-16T17:54:37;10.30;99.90
28189;DHT22;15471;51.166;4.470;2023-04-16T17:57:03;10.20;99.90
28189;DHT22;15471;51.166;4.470;2023-04-16T17:59:32;10.30;99.90
28189;DHT22;15471;51.166;4.470;2023-04-16T18:01:59;10.30;99.90
28189;DHT22;15471;51.166;4.470;2023-04-16T18:04:25;10.20;99.90
28189;DHT22;15471;51.166;4.470;2023-04-16T18:06:52;10.30;99.90
28189;DHT22;15471;51.166;4.470;2023-04-16T18:09:18;10.30;99.90
28189;DHT22;15471;51.166;4.470;2023-04-16T18:11:46;10.40;99.90
28189;DHT22;15471;51.166;4.470;2023-04-16T18:14:13;10.40;99.90
28189;DHT22;15471;51.166;4.470;2023-04-16T18:16:48;10.40;99.90
28189;DHT22;15471;51.166;4.470;2023-04-16T18:19:14;10.40;99.90
28189;DHT22;15471;51.166;4.470;2023-04-16T18:21:46;10.40;99.90
28189;DHT22;15471;51.166;4.470;2023-04-16T18:24:15;10.40;99.90
28189;DHT22;15471;51.166;4.470;2023-04-16T18:26:44;10.40;99.90
28189;DHT22;15471;51.166;4.470;2023-04-16T18:29:10;10.30;99.90
28189;DHT22;15471;51.166;4.470;2023-04-16T18:31:37;10.20;99.90
28189;DHT22;15471;51.166;4.470;2023-04-16T18:34:04;10.20;99.90
28189;DHT22;15471;51.166;4.470;2023-04-16T18:36:32;10.20;99.90
28189;DHT22;15471;51.166;4.470;2023-04-16T18:38:59;10.10;99.90
28189;DHT22;15471;51.166;4.470;2023-04-16T18:41:25;10.10;99.90
28189;DHT22;15471;51.166;4.470;2023-04-16T18:43:55;10.00;99.90
28189;DHT22;15471;51.166;4.470;2023-04-16T18:46:25;10.00;99.90
28189;DHT22;15471;51.166;4.470;2023-04-16T18:49:08;9.90;99.90
28189;DHT22;15471;51.166;4.470;2023-04-16T18:51:36;9.90;99.90
28189;DHT22;15471;51.166;4.470;2023-04-16T18:54:02;10.00;99.90
28189;DHT22;15471;51.166;4.470;2023-04-16T18:56:28;9.90;99.90
28189;DHT22;15471;51.166;4.470;2023-04-16T18:58:57;10.00;99.90
28189;DHT22;15471;51.166;4.470;2023-04-16T19:01:24;10.00;99.90
28189;DHT22;15471;51.166;4.470;2023-04-16T19:03:50;9.90;99.90
28189;DHT22;15471;51.166;4.470;2023-04-16T19:06:16;9.90;99.90
28189;DHT22;15471;51.166;4.470;2023-04-16T19:08:45;10.00;99.90
28189;DHT22;15471;51.166;4.470;2023-04-16T19:11:11;10.00;99.90
28189;DHT22;15471;51.166;4.470;2023-04-16T19:13:37;10.00;99.90
28189;DHT22;15471;51.166;4.470;2023-04-16T19:16:04;9.90;99.90
28189;DHT22;15471;51.166;4.470;2023-04-16T19:18:36;9.90;99.90
28189;DHT22;15471;51.166;4.470;2023-04-16T19:21:03;9.80;99.90
28189;DHT22;15471;51.166;4.470;2023-04-16T19:23:30;9.80;99.90
28189;DHT22;15471;51.166;4.470;2023-04-16T19:25:57;9.70;99.90
28189;DHT22;15471;51.166;4.470;2023-04-16T19:28:24;9.70;99.90
28189;DHT22;15471;51.166;4.470;2023-04-16T19:30:51;9.70;99.90
28189;DHT22;15471;51.166;4.470;2023-04-16T19:33:18;9.70;99.90
28189;DHT22;15471;51.166;4.470;2023-04-16T19:35:45;9.70;99.90
28189;DHT22;15471;51.166;4.470;2023-04-16T19:38:11;9.80;99.90
28189;DHT22;15471;51.166;4.470;2023-04-16T19:40:46;9.70;99.90
28189;DHT22;15471;51.166;4.470;2023-04-16T19:43:23;9.70;99.90
28189;DHT22;15471;51.166;4.470;2023-04-16T19:46:07;9.70;99.90
28189;DHT22;15471;51.166;4.470;2023-04-16T19:49:10;9.70;99.90
28189;DHT22;15471;51.166;4.470;2023-04-16T19:51:49;9.70;99.90
28189;DHT22;15471;51.166;4.470;2023-04-16T19:54:25;9.70;99.90
28189;DHT22;15471;51.166;4.470;2023-04-16T19:56:57;9.60;99.90
28189;DHT22;15471;51.166;4.470;2023-04-16T19:59:26;9.60;99.90
28189;DHT22;15471;51.166;4.470;2023-04-16T20:01:53;9.60;99.90
28189;DHT22;15471;51.166;4.470;2023-04-16T20:04:25;9.60;99.90
28189;DHT22;15471;51.166;4.470;2023-04-16T20:07:04;9.70;99.90